Aérodrome :
LOGIN :

S'inscrire | Disclaimer

   EN    FR    IT 

 










Légende :    VFR   VFR Marginal   IFR   IFR Intensif   IFR Très Intensif
Visi : 
Plafond : 
>= 8 km
>= 3000ft
5 à 8 km
1000 à 3000 ft
1500m à 5 km
500 à 1000 ft
800 à 1500m
200 à 500 ft
< 800m
< 200 ft
Symboles :   Orages  Brouillard  Fortes neiges  Fortes précipitations  Vent > 20 kt
SIGMETs :   Divers  Orages  Givrage  Turbulence  Onde Orograph.  Cendres Volcan.







- Altitude de l'aérodrome : 479 ft
- Code IATA : DOL
- Voir les cartes d'approche


LFRG - Deauville

DERNIER METAR :
  • 180800Z AUTO 18004KT CAVOK 06/05 Q1017 NOSIG

METARs EXPIRÉS :
  • 180730Z AUTO 16006KT CAVOK 05/05 Q1017 NOSIG
  • 180700Z AUTO 17009KT CAVOK 05/05 Q1017 TEMPO 3000 BR
  • 180630Z AUTO 16008KT CAVOK 05/04 Q1017 TEMPO 3000 BR
  • 180600Z AUTO 17005KT CAVOK 04/03 Q1017 TEMPO 3000 BR
  • 180530Z AUTO 17005KT CAVOK 05/04 Q1017 TEMPO 3000 BR

TAF TAF LFRG
Valide du 18 à 06h jusqu'au 18 à 15h UTC


180500Z 1806/1815 VRB05KT CAVOK
TEMPO 1806/1808 3000 BR
BECMG 1812/1814 BKN020
ATIS : +33 2 31 65 65 36
Pas de NOTAMs connus pour ce terrain.



MET'MAP, la Météo Aéronautique d'un coup d'oeil ! - Copyright ORBIFLY Décembre 2007 - Disclaimer

ORBIFLY MET'MAP TEAM :

Programmation & Développement : Alexandra Zaïnal
Conception & Développement : Baudouin d'Aumeries
Co-Programmation & Développement : Marc-Olivier Méhu
Soutien technique & logistique : Manuel Goepfert

Contact : metmap@orbifly.com




SOURCES & CREDITS :

   NOAA